createdAt,value
2018-07-21T00:00:11.208Z,67.67
2018-07-21T00:02:40.624Z,67.42
2018-07-21T00:05:09.338Z,67.99
2018-07-21T00:07:37.959Z,68.30
2018-07-21T00:10:06.736Z,68.34
2018-07-21T00:12:35.349Z,68.38
2018-07-21T00:15:04.539Z,68.18
2018-07-21T00:17:33.179Z,68.07
2018-07-21T00:20:01.800Z,68.36
2018-07-21T00:22:30.434Z,68.24
2018-07-21T00:24:59.028Z,68.38
2018-07-21T00:27:27.648Z,68.27
2018-07-21T00:29:56.247Z,68.23
2018-07-21T00:32:24.857Z,68.26
2018-07-21T00:34:53.586Z,67.84
2018-07-21T00:37:23.767Z,67.58
2018-07-21T00:39:53.092Z,67.61
2018-07-21T00:42:21.753Z,67.80
2018-07-21T00:44:50.620Z,67.79
2018-07-21T00:47:20.183Z,68.53
2018-07-21T00:49:48.910Z,68.62
2018-07-21T00:52:17.480Z,68.72
2018-07-21T00:54:46.248Z,69.05
2018-07-21T00:57:14.913Z,68.64
2018-07-21T00:59:43.949Z,68.91
2018-07-21T01:02:13.144Z,68.23
2018-07-21T01:04:41.752Z,68.29
2018-07-21T01:07:10.342Z,68.19
2018-07-21T01:09:38.977Z,68.77
2018-07-21T01:12:07.713Z,68.61
2018-07-21T01:14:36.362Z,68.51
2018-07-21T01:17:04.985Z,68.54
2018-07-21T01:19:33.690Z,68.40
2018-07-21T01:22:02.487Z,67.87
2018-07-21T01:24:31.109Z,67.57
2018-07-21T01:26:59.728Z,67.62
2018-07-21T01:29:28.302Z,67.31
2018-07-21T01:31:56.889Z,67.50
2018-07-21T01:34:25.874Z,67.76
2018-07-21T01:36:54.835Z,67.82
2018-07-21T01:39:23.388Z,66.96
2018-07-21T01:41:52.075Z,67.76
2018-07-21T01:44:20.651Z,67.97
2018-07-21T01:46:49.318Z,68.22
2018-07-21T01:49:17.926Z,68.49
2018-07-21T01:51:46.451Z,68.92
2018-07-21T01:54:15.101Z,69.07
2018-07-21T01:56:43.666Z,68.69
2018-07-21T01:59:12.287Z,69.08
2018-07-21T02:01:40.913Z,68.71
2018-07-21T02:04:09.506Z,69.33
2018-07-21T02:06:38.191Z,69.04
2018-07-21T02:09:08.671Z,69.42
2018-07-21T02:11:37.259Z,69.61
2018-07-21T02:14:05.910Z,69.52
2018-07-21T02:16:34.643Z,69.35
2018-07-21T02:19:03.519Z,68.81
2018-07-21T02:21:32.135Z,69.09
2018-07-21T02:24:00.692Z,69.00
2018-07-21T02:26:29.651Z,69.02
2018-07-21T02:28:58.240Z,68.98
2018-07-21T02:31:26.893Z,68.93
2018-07-21T02:33:55.487Z,69.14
2018-07-21T02:36:24.470Z,69.76
2018-07-21T02:38:53.041Z,70.22
2018-07-21T02:41:21.861Z,71.05
2018-07-21T02:43:50.423Z,71.78
2018-07-21T02:46:19.778Z,72.65
2018-07-21T02:48:48.369Z,72.47
2018-07-21T02:51:16.991Z,73.23
2018-07-21T02:53:45.756Z,73.26
2018-07-21T02:56:14.430Z,73.73
2018-07-21T02:58:42.986Z,74.24
2018-07-21T03:01:11.888Z,73.84
2018-07-21T03:03:40.488Z,74.14
2018-07-21T03:06:09.144Z,73.57
2018-07-21T03:08:37.736Z,73.08
2018-07-21T03:11:06.509Z,73.62
2018-07-21T03:13:35.123Z,73.06
2018-07-21T03:16:04.581Z,72.39
2018-07-21T03:18:33.267Z,71.93
2018-07-21T03:21:01.941Z,72.42
2018-07-21T03:23:31.028Z,72.73
2018-07-21T03:25:59.662Z,72.64
2018-07-21T03:28:28.355Z,72.73
2018-07-21T03:30:57.027Z,72.22
2018-07-21T03:33:25.650Z,72.09
2018-07-21T03:35:54.367Z,72.01
2018-07-21T03:38:22.953Z,71.65
2018-07-21T03:40:51.814Z,71.09
2018-07-21T03:43:21.039Z,70.42
2018-07-21T03:45:50.368Z,70.93
2018-07-21T03:48:18.958Z,71.06
2018-07-21T03:50:47.555Z,70.24
2018-07-21T03:53:16.168Z,70.25
2018-07-21T03:55:45.525Z,70.16
2018-07-21T03:58:14.162Z,70.02
2018-07-21T04:00:42.748Z,70.22
2018-07-21T04:03:11.521Z,69.71
2018-07-21T04:05:40.266Z,69.44
2018-07-21T04:08:08.904Z,70.00
2018-07-21T04:10:37.737Z,70.08
2018-07-21T04:13:07.160Z,70.63
2018-07-21T04:15:35.868Z,70.46
2018-07-21T04:18:05.094Z,71.17
2018-07-21T04:20:33.711Z,71.51
2018-07-21T04:23:02.376Z,72.14
2018-07-21T04:25:30.991Z,72.39
2018-07-21T04:27:59.579Z,72.70
2018-07-21T04:30:28.200Z,72.23
2018-07-21T04:32:56.768Z,72.25
2018-07-21T04:35:25.352Z,71.78
2018-07-21T04:37:53.957Z,71.95
2018-07-21T04:40:22.610Z,72.15
2018-07-21T04:42:51.223Z,72.48
2018-07-21T04:45:19.789Z,72.77
2018-07-21T04:47:48.406Z,71.61
2018-07-21T04:50:21.497Z,71.14
2018-07-21T04:52:50.176Z,71.05
2018-07-21T04:55:19.092Z,71.10
2018-07-21T04:57:47.846Z,71.65
2018-07-21T05:00:16.489Z,71.31
2018-07-21T05:02:45.095Z,71.10
2018-07-21T05:05:13.955Z,70.43
2018-07-21T05:07:43.628Z,71.70
2018-07-21T05:10:12.370Z,70.97
2018-07-21T05:12:40.927Z,70.40
2018-07-21T05:15:09.608Z,71.44
2018-07-21T05:17:38.249Z,71.31
2018-07-21T05:20:07.443Z,70.43
2018-07-21T05:22:36.068Z,69.93
2018-07-21T05:25:05.286Z,69.75
2018-07-21T05:27:33.883Z,69.65
2018-07-21T05:30:02.528Z,68.91
2018-07-21T05:32:31.155Z,68.43
2018-07-21T05:34:59.716Z,68.22
2018-07-21T05:37:28.368Z,68.50
2018-07-21T05:39:57.002Z,67.77
2018-07-21T05:42:25.656Z,67.95
2018-07-21T05:44:55.125Z,67.82
2018-07-21T05:47:23.873Z,67.25
2018-07-21T05:49:52.519Z,67.38
2018-07-21T05:52:21.212Z,66.89
2018-07-21T05:54:49.906Z,67.39
2018-07-21T05:57:18.508Z,66.87
2018-07-21T05:59:47.328Z,67.93
2018-07-21T06:02:16.694Z,67.67
2018-07-21T06:04:45.748Z,66.79
2018-07-21T06:07:14.369Z,67.10
2018-07-21T06:09:43.004Z,67.39
2018-07-21T06:12:11.719Z,67.24
2018-07-21T06:14:40.373Z,68.11
2018-07-21T06:17:09.088Z,68.01
2018-07-21T06:19:37.648Z,69.64
2018-07-21T06:22:06.334Z,70.40
2018-07-21T06:24:34.947Z,69.95
2018-07-21T06:27:04.311Z,69.93
2018-07-21T06:29:32.865Z,69.58
2018-07-21T06:32:01.459Z,70.33
2018-07-21T06:34:30.064Z,68.91
2018-07-21T06:36:58.657Z,70.31
2018-07-21T06:39:27.292Z,69.95
2018-07-21T06:41:55.904Z,69.33
2018-07-21T06:44:25.208Z,69.51
2018-07-21T06:46:53.898Z,68.72
2018-07-21T06:49:22.570Z,70.11
2018-07-21T06:51:51.185Z,68.70
2018-07-21T06:54:19.822Z,68.50
2018-07-21T06:56:48.516Z,68.87
2018-07-21T06:59:17.171Z,68.82
2018-07-21T07:01:45.755Z,68.65
2018-07-21T07:04:14.513Z,67.58
2018-07-21T07:06:43.209Z,68.14
2018-07-21T07:09:12.395Z,68.21
2018-07-21T07:11:41.248Z,67.36
2018-07-21T07:14:09.895Z,67.78
2018-07-21T07:16:38.570Z,67.49
2018-07-21T07:19:07.176Z,68.51
2018-07-21T07:21:35.853Z,69.26
2018-07-21T07:24:04.710Z,69.63
2018-07-21T07:26:33.924Z,69.25
2018-07-21T07:29:03.162Z,68.05
2018-07-21T07:31:32.544Z,68.20
2018-07-21T07:34:01.257Z,68.27
2018-07-21T07:36:29.903Z,67.43
2018-07-21T07:38:59.083Z,67.33
2018-07-21T07:41:28.343Z,67.35
2018-07-21T07:43:56.944Z,67.52
2018-07-21T07:46:25.695Z,67.98
2018-07-21T07:48:55.044Z,68.42
2018-07-21T07:51:24.270Z,69.51
2018-07-21T07:53:52.884Z,69.94
2018-07-21T07:56:21.515Z,69.02
2018-07-21T07:58:50.270Z,69.43
2018-07-21T08:01:18.966Z,69.15
2018-07-21T08:03:47.652Z,69.08
2018-07-21T08:06:16.311Z,69.90
2018-07-21T08:08:44.908Z,69.29
2018-07-21T08:11:14.079Z,69.22
2018-07-21T08:13:42.721Z,69.81
2018-07-21T08:16:11.325Z,70.12
2018-07-21T08:18:40.006Z,70.23
2018-07-21T08:21:09.252Z,70.44
2018-07-21T08:23:37.971Z,70.57
2018-07-21T08:26:06.753Z,70.78
2018-07-21T08:28:35.416Z,71.13
2018-07-21T08:31:04.141Z,70.64
2018-07-21T08:33:32.800Z,70.98
2018-07-21T08:36:01.694Z,71.53
2018-07-21T08:38:30.566Z,71.43
2018-07-21T08:40:59.225Z,72.10
2018-07-21T08:43:27.925Z,72.74
2018-07-21T08:45:56.578Z,72.66
2018-07-21T08:48:25.187Z,72.28
2018-07-21T08:50:53.860Z,72.14
2018-07-21T08:53:22.523Z,72.67
2018-07-21T08:55:51.195Z,71.93
2018-07-21T08:58:21.253Z,73.13
2018-07-21T09:00:49.943Z,72.90
2018-07-21T09:03:18.668Z,73.55
2018-07-21T09:05:47.308Z,73.54
2018-07-21T09:08:15.939Z,73.64
2018-07-21T09:10:44.506Z,74.27
2018-07-21T09:13:13.231Z,74.79
2018-07-21T09:15:41.856Z,74.67
2018-07-21T09:18:10.455Z,75.27
2018-07-21T09:20:39.260Z,75.11
2018-07-21T09:23:07.876Z,75.67
2018-07-21T09:25:37.128Z,74.76
2018-07-21T09:28:06.828Z,74.54
2018-07-21T09:30:36.347Z,74.77
2018-07-21T09:33:05.053Z,75.30
2018-07-21T09:35:33.786Z,75.16
2018-07-21T09:38:02.450Z,74.31
2018-07-21T09:40:31.806Z,75.27
2018-07-21T09:43:00.450Z,76.41
2018-07-21T09:45:30.278Z,76.86
2018-07-21T09:47:59.025Z,76.71
2018-07-21T09:50:27.658Z,76.78
2018-07-21T09:52:56.308Z,75.82
2018-07-21T09:55:24.950Z,76.22
2018-07-21T09:57:54.373Z,74.94
2018-07-21T10:00:28.219Z,75.64
2018-07-21T10:02:57.268Z,75.60
2018-07-21T10:05:26.082Z,75.67
2018-07-21T10:07:54.790Z,77.08
2018-07-21T10:10:24.552Z,76.13
2018-07-21T10:12:54.196Z,76.91
2018-07-21T10:15:26.401Z,76.71
2018-07-21T10:17:55.291Z,77.13
2018-07-21T10:20:23.970Z,76.93
2018-07-21T10:22:53.097Z,76.18
2018-07-21T10:25:27.078Z,76.37
2018-07-21T10:28:00.938Z,75.77
2018-07-21T10:30:29.750Z,76.15
2018-07-21T10:32:58.476Z,76.27
2018-07-21T10:35:27.228Z,75.95
2018-07-21T10:37:55.872Z,75.93
2018-07-21T10:40:25.242Z,75.59
2018-07-21T10:42:54.518Z,75.94
2018-07-21T10:45:24.074Z,75.50
2018-07-21T10:47:52.831Z,75.78
2018-07-21T10:50:21.721Z,75.93
2018-07-21T10:52:52.655Z,76.54
2018-07-21T10:55:21.653Z,75.71
2018-07-21T10:57:50.507Z,75.24
2018-07-21T11:00:19.609Z,76.30
2018-07-21T11:02:49.172Z,75.51
2018-07-21T11:05:18.028Z,76.06
2018-07-21T11:07:46.876Z,75.64
2018-07-21T11:10:15.537Z,76.32
2018-07-21T11:12:44.839Z,75.92
2018-07-21T11:15:14.636Z,75.50
2018-07-21T11:17:43.290Z,75.03
2018-07-21T11:20:12.306Z,74.57
2018-07-21T11:22:41.295Z,74.38
2018-07-21T11:25:11.205Z,74.45
2018-07-21T11:27:40.021Z,75.22
2018-07-21T11:30:08.731Z,75.04
2018-07-21T11:32:38.074Z,75.90
2018-07-21T11:35:07.564Z,75.92
2018-07-21T11:37:36.236Z,75.78
2018-07-21T11:40:05.109Z,76.18
2018-07-21T11:42:34.174Z,76.02
2018-07-21T11:45:02.844Z,75.90
2018-07-21T11:47:31.605Z,76.29
2018-07-21T11:50:00.307Z,75.90
2018-07-21T11:52:28.987Z,75.59
2018-07-21T11:54:57.809Z,75.27
2018-07-21T11:57:26.544Z,75.80
2018-07-21T11:59:55.346Z,75.01
2018-07-21T12:02:24.814Z,74.12
2018-07-21T12:04:53.764Z,73.73
2018-07-21T12:07:22.537Z,74.58
2018-07-21T12:09:51.472Z,74.40
2018-07-21T12:12:20.149Z,74.04
2018-07-21T12:14:49.006Z,75.00
2018-07-21T12:17:17.734Z,75.54
2018-07-21T12:19:46.743Z,75.46
2018-07-21T12:22:15.488Z,75.33
2018-07-21T12:24:44.144Z,74.41
2018-07-21T12:27:13.459Z,74.77
2018-07-21T12:29:42.487Z,73.51
2018-07-21T12:32:11.339Z,73.27
2018-07-21T12:34:40.063Z,73.11
2018-07-21T12:37:08.873Z,72.75
2018-07-21T12:39:37.548Z,72.48
2018-07-21T12:42:09.022Z,72.23
2018-07-21T12:44:38.015Z,72.51
2018-07-21T12:47:07.767Z,69.89
2018-07-21T12:49:36.518Z,71.83
2018-07-21T12:52:05.404Z,70.36
2018-07-21T12:54:34.401Z,70.95
2018-07-21T12:57:04.333Z,70.33
2018-07-21T12:59:33.130Z,69.78
2018-07-21T13:02:01.877Z,69.07
2018-07-21T13:04:36.991Z,68.29
2018-07-21T13:07:05.776Z,69.09
2018-07-21T13:09:35.153Z,67.98
2018-07-21T13:12:03.940Z,68.18
2018-07-21T13:14:32.659Z,70.54
2018-07-21T13:17:01.331Z,68.51
2018-07-21T13:19:30.075Z,68.61
2018-07-21T13:21:59.023Z,67.62
2018-07-21T13:24:27.742Z,67.02
2018-07-21T13:26:56.502Z,66.57
2018-07-21T13:29:25.205Z,67.63
2018-07-21T13:31:53.925Z,67.31
2018-07-21T13:34:22.521Z,65.80
2018-07-21T13:36:51.251Z,65.92
2018-07-21T13:39:20.038Z,65.75
2018-07-21T13:41:48.922Z,65.99
2018-07-21T13:44:17.692Z,65.75
2018-07-21T13:46:46.320Z,65.83
2018-07-21T13:49:15.788Z,65.81
2018-07-21T13:51:44.499Z,65.79
2018-07-21T13:54:13.180Z,66.13
2018-07-21T13:56:41.897Z,65.73
2018-07-21T13:59:10.834Z,64.99
2018-07-21T14:01:39.512Z,65.50
2018-07-21T14:04:08.324Z,65.53
2018-07-21T14:06:37.030Z,65.27
2018-07-21T14:09:07.801Z,64.72
2018-07-21T14:11:37.470Z,65.63
2018-07-21T14:14:06.468Z,64.19
2018-07-21T14:16:35.341Z,65.17
2018-07-21T14:19:04.082Z,63.34
2018-07-21T14:21:32.831Z,64.54
2018-07-21T14:24:01.542Z,65.19
2018-07-21T14:26:30.529Z,63.99
2018-07-21T14:28:59.299Z,63.60
2018-07-21T14:31:27.989Z,63.28
2018-07-21T14:33:56.741Z,60.03
2018-07-21T14:36:25.578Z,59.29
2018-07-21T14:38:56.268Z,60.29
2018-07-21T14:41:24.979Z,61.50
2018-07-21T14:43:53.795Z,61.18
2018-07-21T14:46:23.288Z,59.94
2018-07-21T14:48:52.595Z,59.54
2018-07-21T14:51:21.771Z,58.17
2018-07-21T14:53:50.445Z,58.41
2018-07-21T14:56:19.290Z,60.75
2018-07-21T14:58:47.940Z,60.82
2018-07-21T15:01:16.858Z,60.41
2018-07-21T15:03:45.762Z,61.53
2018-07-21T15:06:15.139Z,62.43
2018-07-21T15:08:45.753Z,63.90
2018-07-21T15:11:21.776Z,64.22
2018-07-21T15:13:50.504Z,64.87
2018-07-21T15:16:19.273Z,66.29
2018-07-21T15:18:48.140Z,66.17
2018-07-21T15:21:17.539Z,66.61
2018-07-21T15:23:46.229Z,67.03
2018-07-21T15:26:14.963Z,65.40
2018-07-21T15:28:43.611Z,64.62
2018-07-21T15:31:12.306Z,65.92
2018-07-21T15:33:40.930Z,66.42
2018-07-21T15:36:09.577Z,66.64
2018-07-21T15:38:38.339Z,65.09
2018-07-21T15:41:07.082Z,65.81
2018-07-21T15:43:35.768Z,65.65
2018-07-21T15:46:04.630Z,64.91
2018-07-21T15:48:33.360Z,65.40
2018-07-21T15:51:02.104Z,65.89
2018-07-21T15:53:30.877Z,65.80
2018-07-21T15:55:59.545Z,66.69
2018-07-21T15:58:28.147Z,67.15
2018-07-21T16:00:56.934Z,67.12
2018-07-21T16:03:25.694Z,67.34
2018-07-21T16:05:54.900Z,66.99
2018-07-21T16:08:24.290Z,67.42
2018-07-21T16:10:53.343Z,67.45
2018-07-21T16:13:22.042Z,69.05
2018-07-21T16:15:50.761Z,68.92
2018-07-21T16:18:19.615Z,68.99
2018-07-21T16:20:48.363Z,68.49
2018-07-21T16:23:17.166Z,70.28
2018-07-21T16:25:46.252Z,68.93
2018-07-21T16:28:14.999Z,69.12
2018-07-21T16:30:44.389Z,70.48
2018-07-21T16:33:13.064Z,70.45
2018-07-21T16:35:41.663Z,70.87
2018-07-21T16:38:10.449Z,71.62
2018-07-21T16:40:39.136Z,71.99
2018-07-21T16:43:08.584Z,72.05
2018-07-21T16:45:37.259Z,71.46
2018-07-21T16:48:06.263Z,71.84
2018-07-21T16:50:34.964Z,71.62
2018-07-21T16:53:03.588Z,70.57
2018-07-21T16:55:32.233Z,70.46
2018-07-21T16:58:00.913Z,70.76
2018-07-21T17:00:30.087Z,69.82
2018-07-21T17:02:58.721Z,70.01
2018-07-21T17:05:27.564Z,70.68
2018-07-21T17:07:56.971Z,70.27
2018-07-21T17:10:25.923Z,70.00
2018-07-21T17:12:54.669Z,70.55
2018-07-21T17:15:23.551Z,69.34
2018-07-21T17:17:52.205Z,69.99
2018-07-21T17:20:21.151Z,69.60
2018-07-21T17:22:49.926Z,68.49
2018-07-21T17:25:18.614Z,69.15
2018-07-21T17:27:47.344Z,70.80
2018-07-21T17:30:16.039Z,70.95
2018-07-21T17:32:44.700Z,70.84
2018-07-21T17:35:13.517Z,70.57
2018-07-21T17:37:42.241Z,70.14
2018-07-21T17:40:11.013Z,69.36
2018-07-21T17:42:40.547Z,70.10
2018-07-21T17:45:09.413Z,69.52
2018-07-21T17:47:38.840Z,70.34
2018-07-21T17:50:07.491Z,70.20
2018-07-21T17:52:36.194Z,70.97
2018-07-21T17:55:06.154Z,71.27
2018-07-21T17:57:35.136Z,71.80
2018-07-21T18:00:03.988Z,71.92
2018-07-21T18:02:33.281Z,73.06
2018-07-21T18:05:01.928Z,73.01
2018-07-21T18:07:30.764Z,73.07
2018-07-21T18:09:59.821Z,72.44
2018-07-21T18:12:29.051Z,73.20
2018-07-21T18:14:57.737Z,73.54
2018-07-21T18:17:26.572Z,73.72
2018-07-21T18:19:55.295Z,73.98
2018-07-21T18:22:23.944Z,75.17
2018-07-21T18:24:52.862Z,74.22
2018-07-21T18:27:21.480Z,74.70
2018-07-21T18:29:50.214Z,74.79
2018-07-21T18:32:19.004Z,74.13
2018-07-21T18:34:48.615Z,74.50
2018-07-21T18:37:17.209Z,74.54
2018-07-21T18:39:45.925Z,74.25
2018-07-21T18:42:14.587Z,75.63
2018-07-21T18:44:43.283Z,76.11
2018-07-21T18:47:12.111Z,76.02
2018-07-21T18:49:40.795Z,75.23
2018-07-21T18:52:09.510Z,75.38
2018-07-21T18:54:38.130Z,75.17
2018-07-21T18:57:06.804Z,76.35
2018-07-21T18:59:35.622Z,76.65
2018-07-21T19:02:04.266Z,76.29
2018-07-21T19:04:33.032Z,75.97
2018-07-21T19:07:01.678Z,77.09
2018-07-21T19:09:30.499Z,77.84
2018-07-21T19:12:04.413Z,77.35
2018-07-21T19:14:33.120Z,77.59
2018-07-21T19:17:01.922Z,76.90
2018-07-21T19:19:35.984Z,76.76
2018-07-21T19:22:05.398Z,77.03
2018-07-21T19:24:34.335Z,77.75
2018-07-21T19:27:08.396Z,78.61
2018-07-21T19:29:37.177Z,78.24
2018-07-21T19:32:11.331Z,78.19
2018-07-21T19:34:40.352Z,77.00
2018-07-21T19:37:15.069Z,77.67
2018-07-21T19:39:44.122Z,77.91
2018-07-21T19:42:12.808Z,77.65
2018-07-21T19:44:41.694Z,77.13
2018-07-21T19:47:10.583Z,76.40
2018-07-21T19:49:39.228Z,76.67
2018-07-21T19:52:08.044Z,75.89
2018-07-21T19:54:36.839Z,75.92
2018-07-21T19:57:05.602Z,76.07
2018-07-21T19:59:34.915Z,76.32
2018-07-21T20:02:03.934Z,76.28
2018-07-21T20:04:32.605Z,76.17
2018-07-21T20:07:01.342Z,76.46
2018-07-21T20:09:30.079Z,75.88
2018-07-21T20:11:58.802Z,76.21
2018-07-21T20:14:27.463Z,76.99
2018-07-21T20:16:56.143Z,76.77
2018-07-21T20:19:24.808Z,77.24
2018-07-21T20:21:54.174Z,78.14
2018-07-21T20:24:23.091Z,77.48
2018-07-21T20:26:51.744Z,76.82
2018-07-21T20:29:23.549Z,76.89
2018-07-21T20:31:52.281Z,77.02
2018-07-21T20:34:20.897Z,77.61
2018-07-21T20:36:49.842Z,77.06
2018-07-21T20:39:18.571Z,76.55
2018-07-21T20:41:48.039Z,76.64
2018-07-21T20:44:16.713Z,76.93
2018-07-21T20:46:45.929Z,77.38
2018-07-21T20:49:14.612Z,77.05
2018-07-21T20:51:43.886Z,76.58
2018-07-21T20:54:12.617Z,76.84
2018-07-21T20:56:41.626Z,77.02
2018-07-21T20:59:10.466Z,76.64
2018-07-21T21:01:40.136Z,76.81
2018-07-21T21:04:08.940Z,76.68
2018-07-21T21:06:37.607Z,77.85
2018-07-21T21:09:08.601Z,78.05
2018-07-21T21:11:37.400Z,77.49
2018-07-21T21:14:06.125Z,78.22
2018-07-21T21:16:34.794Z,78.24
2018-07-21T21:19:03.565Z,78.69
2018-07-21T21:21:32.289Z,79.02
2018-07-21T21:24:01.823Z,78.92
2018-07-21T21:26:30.472Z,79.21
2018-07-21T21:28:59.206Z,79.15
2018-07-21T21:31:27.933Z,79.39
2018-07-21T21:33:56.928Z,80.34
2018-07-21T21:36:25.621Z,81.77
2018-07-21T21:38:54.287Z,81.15
2018-07-21T21:41:23.711Z,79.47
2018-07-21T21:43:52.441Z,79.69
2018-07-21T21:46:23.083Z,79.04
2018-07-21T21:48:55.643Z,78.67
2018-07-21T21:51:26.293Z,79.23
2018-07-21T21:53:57.437Z,79.33
2018-07-21T21:56:28.633Z,78.97
2018-07-21T21:59:00.893Z,78.55
2018-07-21T22:01:32.636Z,78.38
2018-07-21T22:04:03.325Z,77.87
2018-07-21T22:06:35.045Z,78.29
2018-07-21T22:09:11.025Z,78.05
2018-07-21T22:11:40.672Z,77.72
2018-07-21T22:14:11.046Z,77.63
2018-07-21T22:16:40.103Z,78.07
2018-07-21T22:19:09.160Z,77.92
2018-07-21T22:21:37.850Z,78.36
2018-07-21T22:24:06.863Z,77.89
2018-07-21T22:26:35.595Z,78.38
2018-07-21T22:29:04.280Z,78.36
2018-07-21T22:31:33.627Z,77.84
2018-07-21T22:34:02.478Z,77.75
2018-07-21T22:36:32.198Z,78.18
2018-07-21T22:39:01.069Z,78.11
2018-07-21T22:41:29.897Z,77.82
2018-07-21T22:43:59.144Z,77.82
2018-07-21T22:46:27.940Z,78.15
2018-07-21T22:48:57.053Z,77.33
2018-07-21T22:51:25.703Z,78.15
2018-07-21T22:53:54.539Z,78.00
2018-07-21T22:56:23.158Z,78.19
2018-07-21T22:58:51.854Z,77.94
2018-07-21T23:01:21.283Z,77.47
2018-07-21T23:03:50.727Z,77.59
2018-07-21T23:06:19.716Z,78.22
2018-07-21T23:08:48.938Z,78.03
2018-07-21T23:11:18.232Z,78.14
2018-07-21T23:13:46.883Z,78.05
2018-07-21T23:16:15.922Z,78.21
2018-07-21T23:18:44.735Z,78.30
2018-07-21T23:21:13.392Z,77.44
2018-07-21T23:23:42.093Z,77.21
2018-07-21T23:26:10.736Z,77.42
2018-07-21T23:28:39.491Z,77.16
2018-07-21T23:31:08.528Z,77.62
2018-07-21T23:33:37.150Z,77.12
2018-07-21T23:36:06.405Z,77.05
2018-07-21T23:38:35.786Z,77.45
2018-07-21T23:41:04.449Z,77.54
2018-07-21T23:43:33.031Z,77.48
2018-07-21T23:46:02.159Z,77.22
2018-07-21T23:48:30.849Z,77.19
2018-07-21T23:51:00.311Z,77.31
2018-07-21T23:53:29.051Z,77.81
2018-07-21T23:55:58.248Z,77.80
2018-07-21T23:58:26.898Z,77.28
